sensor_id;sensor_type;location;lat;lon;timestamp;P1;durP1;ratioP1;P2;durP2;ratioP2
71166;SDS011;58864;45.928;20.078;2023-07-31T00:01:45;7.73;;;3.10;;
71166;SDS011;58864;45.928;20.078;2023-07-31T00:04:10;5.53;;;2.80;;
71166;SDS011;58864;45.928;20.078;2023-07-31T00:06:39;6.03;;;3.13;;
71166;SDS011;58864;45.928;20.078;2023-07-31T00:09:03;6.45;;;3.17;;
71166;SDS011;58864;45.928;20.078;2023-07-31T00:11:27;6.47;;;2.83;;
71166;SDS011;58864;45.928;20.078;2023-07-31T00:13:52;5.50;;;2.70;;
71166;SDS011;58864;45.928;20.078;2023-07-31T00:16:17;5.93;;;3.20;;
71166;SDS011;58864;45.928;20.078;2023-07-31T00:18:42;6.17;;;2.90;;
71166;SDS011;58864;45.928;20.078;2023-07-31T00:21:06;6.03;;;2.90;;
71166;SDS011;58864;45.928;20.078;2023-07-31T00:23:31;7.82;;;3.35;;
71166;SDS011;58864;45.928;20.078;2023-07-31T00:25:55;6.47;;;3.10;;
71166;SDS011;58864;45.928;20.078;2023-07-31T00:28:19;5.70;;;2.90;;
71166;SDS011;58864;45.928;20.078;2023-07-31T00:30:44;6.70;;;3.37;;
71166;SDS011;58864;45.928;20.078;2023-07-31T00:33:08;6.07;;;2.80;;
71166;SDS011;58864;45.928;20.078;2023-07-31T00:35:33;6.93;;;3.40;;
71166;SDS011;58864;45.928;20.078;2023-07-31T00:37:57;6.20;;;3.13;;
71166;SDS011;58864;45.928;20.078;2023-07-31T00:40:22;6.53;;;3.15;;
71166;SDS011;58864;45.928;20.078;2023-07-31T00:42:46;6.03;;;3.17;;
71166;SDS011;58864;45.928;20.078;2023-07-31T00:45:11;5.90;;;2.80;;
71166;SDS011;58864;45.928;20.078;2023-07-31T00:47:35;5.40;;;2.75;;
71166;SDS011;58864;45.928;20.078;2023-07-31T00:50:00;6.20;;;2.87;;
71166;SDS011;58864;45.928;20.078;2023-07-31T00:55:22;5.90;;;2.80;;
71166;SDS011;58864;45.928;20.078;2023-07-31T00:57:46;6.10;;;2.70;;
71166;SDS011;58864;45.928;20.078;2023-07-31T01:00:12;5.30;;;2.40;;
71166;SDS011;58864;45.928;20.078;2023-07-31T01:02:36;5.73;;;2.90;;
71166;SDS011;58864;45.928;20.078;2023-07-31T01:05:01;6.10;;;2.77;;
71166;SDS011;58864;45.928;20.078;2023-07-31T01:07:30;6.50;;;2.70;;
71166;SDS011;58864;45.928;20.078;2023-07-31T01:10:00;6.00;;;3.05;;
71166;SDS011;58864;45.928;20.078;2023-07-31T01:12:29;6.10;;;2.97;;
71166;SDS011;58864;45.928;20.078;2023-07-31T01:17:25;6.30;;;2.78;;
71166;SDS011;58864;45.928;20.078;2023-07-31T01:19:49;5.80;;;2.93;;
71166;SDS011;58864;45.928;20.078;2023-07-31T01:22:23;6.53;;;3.20;;
71166;SDS011;58864;45.928;20.078;2023-07-31T01:25:11;7.73;;;2.87;;
71166;SDS011;58864;45.928;20.078;2023-07-31T01:31:23;6.05;;;2.80;;
71166;SDS011;58864;45.928;20.078;2023-07-31T01:33:49;6.50;;;2.90;;
71166;SDS011;58864;45.928;20.078;2023-07-31T01:36:14;7.78;;;2.95;;
71166;SDS011;58864;45.928;20.078;2023-07-31T01:38:39;5.50;;;2.80;;
71166;SDS011;58864;45.928;20.078;2023-07-31T01:41:03;6.53;;;3.23;;
71166;SDS011;58864;45.928;20.078;2023-07-31T01:43:28;6.33;;;2.63;;
71166;SDS011;58864;45.928;20.078;2023-07-31T01:45:52;5.73;;;2.83;;
71166;SDS011;58864;45.928;20.078;2023-07-31T01:48:17;6.23;;;2.47;;
71166;SDS011;58864;45.928;20.078;2023-07-31T01:50:41;6.20;;;3.10;;
71166;SDS011;58864;45.928;20.078;2023-07-31T01:53:06;6.73;;;3.23;;
71166;SDS011;58864;45.928;20.078;2023-07-31T01:55:30;6.17;;;2.33;;
71166;SDS011;58864;45.928;20.078;2023-07-31T01:57:54;7.97;;;2.80;;
71166;SDS011;58864;45.928;20.078;2023-07-31T02:00:19;5.37;;;2.50;;
71166;SDS011;58864;45.928;20.078;2023-07-31T02:02:43;6.43;;;2.72;;
71166;SDS011;58864;45.928;20.078;2023-07-31T02:05:08;5.47;;;2.43;;
71166;SDS011;58864;45.928;20.078;2023-07-31T02:07:32;6.80;;;2.90;;
71166;SDS011;58864;45.928;20.078;2023-07-31T02:09:57;5.40;;;2.33;;
71166;SDS011;58864;45.928;20.078;2023-07-31T02:12:21;6.00;;;2.67;;
71166;SDS011;58864;45.928;20.078;2023-07-31T02:14:45;4.87;;;2.50;;
71166;SDS011;58864;45.928;20.078;2023-07-31T02:17:10;6.03;;;2.73;;
71166;SDS011;58864;45.928;20.078;2023-07-31T02:19:34;6.43;;;2.60;;
71166;SDS011;58864;45.928;20.078;2023-07-31T02:21:59;4.85;;;2.20;;
71166;SDS011;58864;45.928;20.078;2023-07-31T02:24:24;5.20;;;2.33;;
71166;SDS011;58864;45.928;20.078;2023-07-31T02:26:48;6.03;;;2.97;;
71166;SDS011;58864;45.928;20.078;2023-07-31T02:29:13;5.77;;;2.63;;
71166;SDS011;58864;45.928;20.078;2023-07-31T02:31:44;6.33;;;3.13;;
71166;SDS011;58864;45.928;20.078;2023-07-31T02:34:09;5.65;;;2.78;;
71166;SDS011;58864;45.928;20.078;2023-07-31T02:36:33;5.90;;;3.17;;
71166;SDS011;58864;45.928;20.078;2023-07-31T02:38:58;6.63;;;3.40;;
71166;SDS011;58864;45.928;20.078;2023-07-31T02:41:22;6.07;;;3.15;;
71166;SDS011;58864;45.928;20.078;2023-07-31T02:43:46;7.30;;;3.20;;
71166;SDS011;58864;45.928;20.078;2023-07-31T02:46:11;6.13;;;3.27;;
71166;SDS011;58864;45.928;20.078;2023-07-31T02:48:35;6.83;;;3.60;;
71166;SDS011;58864;45.928;20.078;2023-07-31T02:51:00;6.53;;;3.50;;
71166;SDS011;58864;45.928;20.078;2023-07-31T02:53:24;7.27;;;3.70;;
71166;SDS011;58864;45.928;20.078;2023-07-31T02:55:49;8.83;;;3.77;;
71166;SDS011;58864;45.928;20.078;2023-07-31T02:58:13;6.60;;;3.57;;
71166;SDS011;58864;45.928;20.078;2023-07-31T03:00:41;10.00;;;3.80;;
71166;SDS011;58864;45.928;20.078;2023-07-31T03:03:09;7.45;;;3.50;;
71166;SDS011;58864;45.928;20.078;2023-07-31T03:05:33;6.97;;;3.70;;
71166;SDS011;58864;45.928;20.078;2023-07-31T03:07:58;6.13;;;3.33;;
71166;SDS011;58864;45.928;20.078;2023-07-31T03:10:22;6.97;;;3.30;;
71166;SDS011;58864;45.928;20.078;2023-07-31T03:12:47;7.50;;;3.97;;
71166;SDS011;58864;45.928;20.078;2023-07-31T03:15:12;6.65;;;3.40;;
71166;SDS011;58864;45.928;20.078;2023-07-31T03:17:36;6.13;;;2.80;;
71166;SDS011;58864;45.928;20.078;2023-07-31T03:20:01;5.83;;;2.60;;
71166;SDS011;58864;45.928;20.078;2023-07-31T03:22:25;6.20;;;2.90;;
71166;SDS011;58864;45.928;20.078;2023-07-31T03:24:50;9.33;;;3.23;;
71166;SDS011;58864;45.928;20.078;2023-07-31T03:27:14;7.00;;;3.43;;
71166;SDS011;58864;45.928;20.078;2023-07-31T03:29:39;6.97;;;3.03;;
71166;SDS011;58864;45.928;20.078;2023-07-31T03:32:03;6.50;;;3.20;;
71166;SDS011;58864;45.928;20.078;2023-07-31T03:34:28;7.00;;;3.60;;
71166;SDS011;58864;45.928;20.078;2023-07-31T03:36:53;6.20;;;3.05;;
71166;SDS011;58864;45.928;20.078;2023-07-31T03:39:18;7.50;;;3.50;;
71166;SDS011;58864;45.928;20.078;2023-07-31T03:41:42;8.50;;;3.20;;
71166;SDS011;58864;45.928;20.078;2023-07-31T03:44:07;6.33;;;3.00;;
71166;SDS011;58864;45.928;20.078;2023-07-31T03:46:31;5.85;;;3.03;;
71166;SDS011;58864;45.928;20.078;2023-07-31T03:48:56;6.80;;;3.23;;
71166;SDS011;58864;45.928;20.078;2023-07-31T03:51:21;7.93;;;3.40;;
71166;SDS011;58864;45.928;20.078;2023-07-31T03:53:46;8.32;;;3.20;;
71166;SDS011;58864;45.928;20.078;2023-07-31T03:56:10;7.47;;;3.50;;
71166;SDS011;58864;45.928;20.078;2023-07-31T03:58:35;8.13;;;3.47;;
71166;SDS011;58864;45.928;20.078;2023-07-31T04:01:00;7.10;;;3.60;;
71166;SDS011;58864;45.928;20.078;2023-07-31T04:03:25;7.33;;;3.60;;
71166;SDS011;58864;45.928;20.078;2023-07-31T04:05:49;8.37;;;3.30;;
71166;SDS011;58864;45.928;20.078;2023-07-31T04:08:14;7.70;;;3.73;;
71166;SDS011;58864;45.928;20.078;2023-07-31T04:10:38;7.67;;;3.70;;
71166;SDS011;58864;45.928;20.078;2023-07-31T04:13:02;7.43;;;4.03;;
71166;SDS011;58864;45.928;20.078;2023-07-31T04:15:27;7.57;;;3.50;;
71166;SDS011;58864;45.928;20.078;2023-07-31T04:17:51;8.67;;;3.90;;
71166;SDS011;58864;45.928;20.078;2023-07-31T04:20:16;8.37;;;3.90;;
71166;SDS011;58864;45.928;20.078;2023-07-31T04:22:40;8.13;;;3.53;;
71166;SDS011;58864;45.928;20.078;2023-07-31T04:25:05;8.77;;;4.27;;
71166;SDS011;58864;45.928;20.078;2023-07-31T04:27:29;10.03;;;4.23;;
71166;SDS011;58864;45.928;20.078;2023-07-31T04:29:54;8.47;;;4.07;;
71166;SDS011;58864;45.928;20.078;2023-07-31T04:32:18;6.47;;;3.50;;
71166;SDS011;58864;45.928;20.078;2023-07-31T04:34:44;8.38;;;3.90;;
71166;SDS011;58864;45.928;20.078;2023-07-31T04:37:08;8.67;;;4.30;;
71166;SDS011;58864;45.928;20.078;2023-07-31T04:39:33;8.02;;;4.32;;
71166;SDS011;58864;45.928;20.078;2023-07-31T04:41:57;7.13;;;4.00;;
71166;SDS011;58864;45.928;20.078;2023-07-31T04:44:22;7.87;;;4.00;;
71166;SDS011;58864;45.928;20.078;2023-07-31T04:46:46;7.37;;;3.80;;
71166;SDS011;58864;45.928;20.078;2023-07-31T04:49:11;7.15;;;3.83;;
71166;SDS011;58864;45.928;20.078;2023-07-31T04:51:35;7.13;;;3.70;;
71166;SDS011;58864;45.928;20.078;2023-07-31T04:54:00;8.63;;;3.85;;
71166;SDS011;58864;45.928;20.078;2023-07-31T04:56:24;7.90;;;3.87;;
71166;SDS011;58864;45.928;20.078;2023-07-31T04:58:49;8.10;;;3.50;;
71166;SDS011;58864;45.928;20.078;2023-07-31T05:01:13;6.87;;;3.57;;
71166;SDS011;58864;45.928;20.078;2023-07-31T05:03:37;8.68;;;3.80;;
71166;SDS011;58864;45.928;20.078;2023-07-31T05:06:02;7.23;;;3.53;;
71166;SDS011;58864;45.928;20.078;2023-07-31T05:08:27;7.00;;;3.70;;
71166;SDS011;58864;45.928;20.078;2023-07-31T05:10:51;7.72;;;3.75;;
71166;SDS011;58864;45.928;20.078;2023-07-31T05:13:15;7.33;;;3.30;;
71166;SDS011;58864;45.928;20.078;2023-07-31T05:15:40;9.23;;;3.43;;
71166;SDS011;58864;45.928;20.078;2023-07-31T05:18:05;6.95;;;3.30;;
71166;SDS011;58864;45.928;20.078;2023-07-31T05:20:29;9.23;;;3.60;;
71166;SDS011;58864;45.928;20.078;2023-07-31T05:22:54;6.50;;;3.23;;
71166;SDS011;58864;45.928;20.078;2023-07-31T05:25:18;6.60;;;3.08;;
71166;SDS011;58864;45.928;20.078;2023-07-31T05:27:43;6.73;;;3.20;;
71166;SDS011;58864;45.928;20.078;2023-07-31T05:30:07;6.77;;;3.30;;
71166;SDS011;58864;45.928;20.078;2023-07-31T05:32:32;8.20;;;3.13;;
71166;SDS011;58864;45.928;20.078;2023-07-31T05:34:57;8.73;;;2.80;;
71166;SDS011;58864;45.928;20.078;2023-07-31T05:37:22;6.78;;;2.90;;
71166;SDS011;58864;45.928;20.078;2023-07-31T05:39:46;5.30;;;2.60;;
71166;SDS011;58864;45.928;20.078;2023-07-31T05:42:11;5.90;;;2.60;;
71166;SDS011;58864;45.928;20.078;2023-07-31T05:44:35;8.57;;;2.80;;
71166;SDS011;58864;45.928;20.078;2023-07-31T05:46:59;6.53;;;2.70;;
71166;SDS011;58864;45.928;20.078;2023-07-31T05:49:24;5.73;;;2.53;;
71166;SDS011;58864;45.928;20.078;2023-07-31T05:51:48;6.07;;;2.80;;
71166;SDS011;58864;45.928;20.078;2023-07-31T05:54:13;5.87;;;2.17;;
71166;SDS011;58864;45.928;20.078;2023-07-31T05:56:37;5.97;;;2.20;;
71166;SDS011;58864;45.928;20.078;2023-07-31T05:59:02;7.53;;;2.60;;
71166;SDS011;58864;45.928;20.078;2023-07-31T06:01:26;6.72;;;2.20;;
71166;SDS011;58864;45.928;20.078;2023-07-31T06:03:59;5.53;;;2.27;;
71166;SDS011;58864;45.928;20.078;2023-07-31T06:06:24;7.43;;;2.30;;
71166;SDS011;58864;45.928;20.078;2023-07-31T06:08:48;6.67;;;2.67;;
71166;SDS011;58864;45.928;20.078;2023-07-31T06:11:13;6.40;;;2.40;;
71166;SDS011;58864;45.928;20.078;2023-07-31T06:13:38;5.80;;;2.10;;
71166;SDS011;58864;45.928;20.078;2023-07-31T06:16:03;6.50;;;2.10;;
71166;SDS011;58864;45.928;20.078;2023-07-31T06:18:30;5.60;;;2.60;;
71166;SDS011;58864;45.928;20.078;2023-07-31T06:20:55;6.60;;;2.20;;
71166;SDS011;58864;45.928;20.078;2023-07-31T06:23:20;5.53;;;2.43;;
71166;SDS011;58864;45.928;20.078;2023-07-31T06:25:44;5.00;;;2.20;;
71166;SDS011;58864;45.928;20.078;2023-07-31T06:28:09;4.33;;;1.80;;
71166;SDS011;58864;45.928;20.078;2023-07-31T06:30:33;5.63;;;1.80;;
71166;SDS011;58864;45.928;20.078;2023-07-31T06:32:58;5.17;;;2.03;;
71166;SDS011;58864;45.928;20.078;2023-07-31T06:35:22;5.68;;;1.90;;
71166;SDS011;58864;45.928;20.078;2023-07-31T06:37:47;4.73;;;1.90;;
71166;SDS011;58864;45.928;20.078;2023-07-31T06:40:11;6.07;;;2.20;;
71166;SDS011;58864;45.928;20.078;2023-07-31T06:42:36;4.57;;;1.70;;
71166;SDS011;58864;45.928;20.078;2023-07-31T06:45:00;5.33;;;2.00;;
71166;SDS011;58864;45.928;20.078;2023-07-31T06:47:25;5.22;;;1.63;;
71166;SDS011;58864;45.928;20.078;2023-07-31T06:49:50;5.10;;;1.90;;
71166;SDS011;58864;45.928;20.078;2023-07-31T06:52:14;6.53;;;2.20;;
71166;SDS011;58864;45.928;20.078;2023-07-31T06:54:39;6.00;;;2.10;;
71166;SDS011;58864;45.928;20.078;2023-07-31T06:57:03;5.97;;;1.90;;
71166;SDS011;58864;45.928;20.078;2023-07-31T06:59:28;6.00;;;1.92;;
71166;SDS011;58864;45.928;20.078;2023-07-31T07:01:53;9.63;;;2.53;;
71166;SDS011;58864;45.928;20.078;2023-07-31T07:04:17;6.00;;;1.50;;
71166;SDS011;58864;45.928;20.078;2023-07-31T07:06:41;4.70;;;1.80;;
71166;SDS011;58864;45.928;20.078;2023-07-31T07:09:06;5.87;;;2.53;;
71166;SDS011;58864;45.928;20.078;2023-07-31T07:11:31;6.17;;;2.03;;
71166;SDS011;58864;45.928;20.078;2023-07-31T07:13:56;5.30;;;1.60;;
71166;SDS011;58864;45.928;20.078;2023-07-31T07:16:20;4.90;;;1.53;;
71166;SDS011;58864;45.928;20.078;2023-07-31T07:18:45;5.87;;;2.00;;
71166;SDS011;58864;45.928;20.078;2023-07-31T07:21:09;6.63;;;1.77;;
71166;SDS011;58864;45.928;20.078;2023-07-31T07:23:38;5.47;;;1.77;;
71166;SDS011;58864;45.928;20.078;2023-07-31T07:26:02;6.30;;;1.77;;
71166;SDS011;58864;45.928;20.078;2023-07-31T07:28:27;5.72;;;1.77;;
71166;SDS011;58864;45.928;20.078;2023-07-31T07:30:52;5.40;;;1.80;;
71166;SDS011;58864;45.928;20.078;2023-07-31T07:33:17;5.75;;;1.80;;
71166;SDS011;58864;45.928;20.078;2023-07-31T07:35:42;5.20;;;1.60;;
71166;SDS011;58864;45.928;20.078;2023-07-31T07:38:06;9.30;;;1.90;;
71166;SDS011;58864;45.928;20.078;2023-07-31T07:40:31;4.50;;;1.40;;
71166;SDS011;58864;45.928;20.078;2023-07-31T07:42:55;5.27;;;1.57;;
71166;SDS011;58864;45.928;20.078;2023-07-31T07:45:20;5.27;;;1.60;;
71166;SDS011;58864;45.928;20.078;2023-07-31T07:47:44;7.47;;;1.47;;
71166;SDS011;58864;45.928;20.078;2023-07-31T07:50:08;5.00;;;1.93;;
71166;SDS011;58864;45.928;20.078;2023-07-31T07:52:33;5.55;;;1.90;;
71166;SDS011;58864;45.928;20.078;2023-07-31T07:54:58;4.00;;;1.30;;
71166;SDS011;58864;45.928;20.078;2023-07-31T07:57:22;4.47;;;1.30;;
71166;SDS011;58864;45.928;20.078;2023-07-31T07:59:47;4.03;;;1.30;;
71166;SDS011;58864;45.928;20.078;2023-07-31T08:02:11;5.28;;;1.45;;
71166;SDS011;58864;45.928;20.078;2023-07-31T08:04:36;4.33;;;1.37;;
71166;SDS011;58864;45.928;20.078;2023-07-31T08:07:00;4.00;;;1.42;;
71166;SDS011;58864;45.928;20.078;2023-07-31T08:09:25;6.33;;;1.60;;
71166;SDS011;58864;45.928;20.078;2023-07-31T08:11:49;6.13;;;1.53;;
71166;SDS011;58864;45.928;20.078;2023-07-31T08:14:14;4.50;;;1.20;;
71166;SDS011;58864;45.928;20.078;2023-07-31T08:16:38;10.30;;;1.73;;
71166;SDS011;58864;45.928;20.078;2023-07-31T08:19:03;4.93;;;1.23;;
71166;SDS011;58864;45.928;20.078;2023-07-31T08:21:27;5.43;;;1.30;;
71166;SDS011;58864;45.928;20.078;2023-07-31T08:23:51;4.65;;;1.45;;
71166;SDS011;58864;45.928;20.078;2023-07-31T08:26:19;5.30;;;1.30;;
71166;SDS011;58864;45.928;20.078;2023-07-31T08:28:44;4.28;;;1.35;;
71166;SDS011;58864;45.928;20.078;2023-07-31T08:31:09;5.43;;;1.50;;
71166;SDS011;58864;45.928;20.078;2023-07-31T08:33:34;4.03;;;1.33;;
71166;SDS011;58864;45.928;20.078;2023-07-31T08:35:59;5.10;;;1.30;;
71166;SDS011;58864;45.928;20.078;2023-07-31T08:38:23;5.10;;;1.60;;
71166;SDS011;58864;45.928;20.078;2023-07-31T08:40:49;5.67;;;1.30;;
71166;SDS011;58864;45.928;20.078;2023-07-31T08:43:14;4.32;;;1.10;;
71166;SDS011;58864;45.928;20.078;2023-07-31T08:45:38;4.17;;;1.40;;
71166;SDS011;58864;45.928;20.078;2023-07-31T08:48:06;4.35;;;1.27;;
71166;SDS011;58864;45.928;20.078;2023-07-31T08:50:30;6.40;;;1.60;;
71166;SDS011;58864;45.928;20.078;2023-07-31T08:52:55;8.10;;;1.53;;
71166;SDS011;58864;45.928;20.078;2023-07-31T08:55:19;6.97;;;1.95;;
71166;SDS011;58864;45.928;20.078;2023-07-31T08:57:48;5.18;;;1.80;;
71166;SDS011;58864;45.928;20.078;2023-07-31T09:00:13;8.90;;;2.43;;
71166;SDS011;58864;45.928;20.078;2023-07-31T09:02:39;5.22;;;1.80;;
71166;SDS011;58864;45.928;20.078;2023-07-31T09:05:08;5.40;;;1.33;;
71166;SDS011;58864;45.928;20.078;2023-07-31T09:07:33;6.37;;;3.00;;
71166;SDS011;58864;45.928;20.078;2023-07-31T09:10:00;4.95;;;1.25;;
71166;SDS011;58864;45.928;20.078;2023-07-31T09:12:25;4.83;;;1.60;;
71166;SDS011;58864;45.928;20.078;2023-07-31T09:14:49;3.80;;;1.00;;
71166;SDS011;58864;45.928;20.078;2023-07-31T09:17:14;5.80;;;1.37;;
71166;SDS011;58864;45.928;20.078;2023-07-31T09:19:38;6.00;;;1.35;;
71166;SDS011;58864;45.928;20.078;2023-07-31T09:22:03;3.73;;;1.17;;
71166;SDS011;58864;45.928;20.078;2023-07-31T09:24:31;4.47;;;1.40;;
71166;SDS011;58864;45.928;20.078;2023-07-31T09:26:57;7.78;;;1.75;;
71166;SDS011;58864;45.928;20.078;2023-07-31T09:29:23;4.68;;;1.42;;
71166;SDS011;58864;45.928;20.078;2023-07-31T09:31:50;4.20;;;1.40;;
71166;SDS011;58864;45.928;20.078;2023-07-31T09:34:15;5.07;;;1.40;;
71166;SDS011;58864;45.928;20.078;2023-07-31T09:36:46;21.87;;;3.50;;
71166;SDS011;58864;45.928;20.078;2023-07-31T09:39:13;8.45;;;2.10;;
71166;SDS011;58864;45.928;20.078;2023-07-31T09:41:40;5.78;;;1.70;;
71166;SDS011;58864;45.928;20.078;2023-07-31T09:44:09;6.97;;;1.40;;
71166;SDS011;58864;45.928;20.078;2023-07-31T09:46:37;4.47;;;1.13;;
71166;SDS011;58864;45.928;20.078;2023-07-31T09:49:11;12.05;;;1.50;;
71166;SDS011;58864;45.928;20.078;2023-07-31T09:51:39;6.63;;;1.55;;
71166;SDS011;58864;45.928;20.078;2023-07-31T09:54:09;4.10;;;1.17;;
71166;SDS011;58864;45.928;20.078;2023-07-31T09:56:36;5.93;;;1.67;;
71166;SDS011;58864;45.928;20.078;2023-07-31T09:59:02;5.10;;;1.50;;
71166;SDS011;58864;45.928;20.078;2023-07-31T10:01:28;5.38;;;1.80;;
71166;SDS011;58864;45.928;20.078;2023-07-31T10:03:52;4.70;;;1.30;;
71166;SDS011;58864;45.928;20.078;2023-07-31T10:06:17;5.87;;;1.20;;
71166;SDS011;58864;45.928;20.078;2023-07-31T10:08:43;5.03;;;1.30;;
71166;SDS011;58864;45.928;20.078;2023-07-31T10:11:09;14.65;;;4.68;;
71166;SDS011;58864;45.928;20.078;2023-07-31T10:13:34;10.47;;;2.70;;
71166;SDS011;58864;45.928;20.078;2023-07-31T10:15:59;8.00;;;1.73;;
71166;SDS011;58864;45.928;20.078;2023-07-31T10:18:27;4.97;;;1.30;;
71166;SDS011;58864;45.928;20.078;2023-07-31T10:20:53;5.20;;;1.35;;
71166;SDS011;58864;45.928;20.078;2023-07-31T10:23:18;5.50;;;1.23;;
71166;SDS011;58864;45.928;20.078;2023-07-31T10:25:43;4.47;;;1.20;;
71166;SDS011;58864;45.928;20.078;2023-07-31T10:28:08;7.47;;;1.65;;
71166;SDS011;58864;45.928;20.078;2023-07-31T10:30:33;4.90;;;1.27;;
71166;SDS011;58864;45.928;20.078;2023-07-31T10:32:58;5.15;;;1.10;;
71166;SDS011;58864;45.928;20.078;2023-07-31T10:35:23;5.22;;;1.40;;
71166;SDS011;58864;45.928;20.078;2023-07-31T10:37:48;7.27;;;1.63;;
71166;SDS011;58864;45.928;20.078;2023-07-31T10:40:16;6.63;;;1.58;;
71166;SDS011;58864;45.928;20.078;2023-07-31T10:42:51;4.13;;;1.10;;
71166;SDS011;58864;45.928;20.078;2023-07-31T10:45:32;5.88;;;1.55;;
71166;SDS011;58864;45.928;20.078;2023-07-31T10:48:01;4.95;;;1.30;;
71166;SDS011;58864;45.928;20.078;2023-07-31T10:50:27;5.40;;;1.40;;
71166;SDS011;58864;45.928;20.078;2023-07-31T10:52:54;4.78;;;1.33;;
71166;SDS011;58864;45.928;20.078;2023-07-31T10:55:32;7.03;;;1.70;;
71166;SDS011;58864;45.928;20.078;2023-07-31T10:58:04;4.18;;;1.20;;
71166;SDS011;58864;45.928;20.078;2023-07-31T11:00:30;4.22;;;1.00;;
71166;SDS011;58864;45.928;20.078;2023-07-31T11:05:26;5.32;;;1.20;;
71166;SDS011;58864;45.928;20.078;2023-07-31T11:08:09;4.72;;;1.13;;
71166;SDS011;58864;45.928;20.078;2023-07-31T11:10:37;5.28;;;1.20;;
71166;SDS011;58864;45.928;20.078;2023-07-31T11:13:03;4.13;;;1.10;;
71166;SDS011;58864;45.928;20.078;2023-07-31T11:15:28;4.32;;;1.20;;
71166;SDS011;58864;45.928;20.078;2023-07-31T11:17:53;5.93;;;1.13;;
71166;SDS011;58864;45.928;20.078;2023-07-31T11:20:17;9.10;;;1.50;;
71166;SDS011;58864;45.928;20.078;2023-07-31T11:22:42;8.25;;;1.30;;
71166;SDS011;58864;45.928;20.078;2023-07-31T11:25:06;3.93;;;0.83;;
71166;SDS011;58864;45.928;20.078;2023-07-31T11:27:38;6.18;;;1.30;;
71166;SDS011;58864;45.928;20.078;2023-07-31T11:30:03;3.70;;;0.95;;
71166;SDS011;58864;45.928;20.078;2023-07-31T11:32:28;5.47;;;1.20;;
71166;SDS011;58864;45.928;20.078;2023-07-31T11:34:53;4.23;;;0.90;;
71166;SDS011;58864;45.928;20.078;2023-07-31T11:37:18;7.13;;;1.27;;
71166;SDS011;58864;45.928;20.078;2023-07-31T11:39:42;4.85;;;1.17;;
71166;SDS011;58864;45.928;20.078;2023-07-31T11:42:07;5.77;;;1.30;;
71166;SDS011;58864;45.928;20.078;2023-07-31T11:44:40;6.47;;;1.40;;
71166;SDS011;58864;45.928;20.078;2023-07-31T11:47:11;5.00;;;1.30;;
71166;SDS011;58864;45.928;20.078;2023-07-31T11:49:36;7.07;;;1.20;;
71166;SDS011;58864;45.928;20.078;2023-07-31T11:52:01;5.17;;;1.00;;
71166;SDS011;58864;45.928;20.078;2023-07-31T11:54:26;4.50;;;1.25;;
71166;SDS011;58864;45.928;20.078;2023-07-31T11:56:50;4.17;;;0.87;;
71166;SDS011;58864;45.928;20.078;2023-07-31T11:59:15;5.28;;;1.10;;
71166;SDS011;58864;45.928;20.078;2023-07-31T12:01:40;5.20;;;1.00;;
71166;SDS011;58864;45.928;20.078;2023-07-31T12:04:04;5.20;;;1.10;;
71166;SDS011;58864;45.928;20.078;2023-07-31T12:06:32;4.97;;;1.25;;
71166;SDS011;58864;45.928;20.078;2023-07-31T12:09:02;5.65;;;1.20;;
71166;SDS011;58864;45.928;20.078;2023-07-31T12:11:27;3.83;;;1.00;;
71166;SDS011;58864;45.928;20.078;2023-07-31T12:13:52;5.05;;;1.10;;
71166;SDS011;58864;45.928;20.078;2023-07-31T12:16:16;4.20;;;1.10;;
71166;SDS011;58864;45.928;20.078;2023-07-31T12:18:42;6.00;;;1.13;;
71166;SDS011;58864;45.928;20.078;2023-07-31T12:21:07;4.03;;;1.07;;
71166;SDS011;58864;45.928;20.078;2023-07-31T12:23:33;5.75;;;1.13;;
71166;SDS011;58864;45.928;20.078;2023-07-31T12:28:45;4.10;;;1.00;;
71166;SDS011;58864;45.928;20.078;2023-07-31T12:31:12;4.10;;;1.00;;
71166;SDS011;58864;45.928;20.078;2023-07-31T12:33:39;3.92;;;0.93;;
71166;SDS011;58864;45.928;20.078;2023-07-31T12:36:07;5.32;;;0.90;;
71166;SDS011;58864;45.928;20.078;2023-07-31T12:38:33;6.30;;;0.90;;
71166;SDS011;58864;45.928;20.078;2023-07-31T12:40:57;4.05;;;1.00;;
71166;SDS011;58864;45.928;20.078;2023-07-31T12:43:22;3.57;;;0.90;;
71166;SDS011;58864;45.928;20.078;2023-07-31T12:45:47;4.78;;;1.20;;
71166;SDS011;58864;45.928;20.078;2023-07-31T12:48:11;3.03;;;0.83;;
71166;SDS011;58864;45.928;20.078;2023-07-31T12:50:36;4.73;;;1.00;;
71166;SDS011;58864;45.928;20.078;2023-07-31T12:53:00;5.10;;;0.85;;
71166;SDS011;58864;45.928;20.078;2023-07-31T12:55:25;4.40;;;0.90;;
71166;SDS011;58864;45.928;20.078;2023-07-31T12:57:49;3.80;;;0.90;;
71166;SDS011;58864;45.928;20.078;2023-07-31T13:00:14;5.93;;;1.00;;
71166;SDS011;58864;45.928;20.078;2023-07-31T13:02:39;5.32;;;1.25;;
71166;SDS011;58864;45.928;20.078;2023-07-31T13:05:04;3.90;;;1.20;;
71166;SDS011;58864;45.928;20.078;2023-07-31T13:07:29;5.18;;;1.10;;
71166;SDS011;58864;45.928;20.078;2023-07-31T13:09:53;3.00;;;0.80;;
71166;SDS011;58864;45.928;20.078;2023-07-31T13:12:17;5.27;;;1.07;;
71166;SDS011;58864;45.928;20.078;2023-07-31T13:14:42;4.77;;;1.20;;
71166;SDS011;58864;45.928;20.078;2023-07-31T13:17:06;4.13;;;1.20;;
71166;SDS011;58864;45.928;20.078;2023-07-31T13:19:31;7.07;;;1.30;;
71166;SDS011;58864;45.928;20.078;2023-07-31T13:21:55;4.63;;;1.10;;
71166;SDS011;58864;45.928;20.078;2023-07-31T13:24:20;3.47;;;1.00;;
71166;SDS011;58864;45.928;20.078;2023-07-31T13:26:44;4.33;;;1.20;;
71166;SDS011;58864;45.928;20.078;2023-07-31T13:29:08;5.00;;;1.00;;
71166;SDS011;58864;45.928;20.078;2023-07-31T13:31:33;12.10;;;1.42;;
71166;SDS011;58864;45.928;20.078;2023-07-31T13:33:57;6.50;;;1.23;;
71166;SDS011;58864;45.928;20.078;2023-07-31T13:36:22;5.40;;;1.20;;
71166;SDS011;58864;45.928;20.078;2023-07-31T13:38:46;4.83;;;1.10;;
71166;SDS011;58864;45.928;20.078;2023-07-31T13:41:11;4.17;;;1.00;;
71166;SDS011;58864;45.928;20.078;2023-07-31T13:43:35;4.33;;;1.10;;
71166;SDS011;58864;45.928;20.078;2023-07-31T13:46:00;4.78;;;1.20;;
71166;SDS011;58864;45.928;20.078;2023-07-31T13:48:30;4.43;;;1.10;;
71166;SDS011;58864;45.928;20.078;2023-07-31T13:50:55;4.17;;;1.10;;
71166;SDS011;58864;45.928;20.078;2023-07-31T13:53:19;5.43;;;1.30;;
71166;SDS011;58864;45.928;20.078;2023-07-31T13:55:43;3.97;;;0.93;;
71166;SDS011;58864;45.928;20.078;2023-07-31T13:58:09;4.00;;;1.00;;
71166;SDS011;58864;45.928;20.078;2023-07-31T14:00:34;4.50;;;1.13;;
71166;SDS011;58864;45.928;20.078;2023-07-31T14:02:59;4.40;;;1.10;;
71166;SDS011;58864;45.928;20.078;2023-07-31T14:05:23;4.30;;;1.00;;
71166;SDS011;58864;45.928;20.078;2023-07-31T14:07:48;3.83;;;1.00;;
71166;SDS011;58864;45.928;20.078;2023-07-31T14:10:12;5.00;;;1.53;;
71166;SDS011;58864;45.928;20.078;2023-07-31T14:12:37;5.00;;;1.70;;
71166;SDS011;58864;45.928;20.078;2023-07-31T14:15:01;3.93;;;1.17;;
71166;SDS011;58864;45.928;20.078;2023-07-31T14:17:26;4.83;;;1.43;;
71166;SDS011;58864;45.928;20.078;2023-07-31T14:19:51;4.43;;;1.10;;
71166;SDS011;58864;45.928;20.078;2023-07-31T14:22:15;5.97;;;1.10;;
71166;SDS011;58864;45.928;20.078;2023-07-31T14:24:51;5.60;;;1.50;;
71166;SDS011;58864;45.928;20.078;2023-07-31T14:27:16;5.17;;;1.00;;
71166;SDS011;58864;45.928;20.078;2023-07-31T14:29:40;4.67;;;1.10;;
71166;SDS011;58864;45.928;20.078;2023-07-31T14:32:04;4.50;;;1.10;;
71166;SDS011;58864;45.928;20.078;2023-07-31T14:34:29;4.13;;;1.20;;
71166;SDS011;58864;45.928;20.078;2023-07-31T14:36:54;7.97;;;1.23;;